createdAt,value
2019-03-04T00:00:53.825Z,97.5
2019-03-04T00:02:03.200Z,96.9
2019-03-04T00:03:12.624Z,96.9
2019-03-04T00:04:21.972Z,97.8
2019-03-04T00:05:31.474Z,97.3
2019-03-04T00:06:40.996Z,96.9
2019-03-04T00:07:50.113Z,97.6
2019-03-04T00:08:59.521Z,96.3
2019-03-04T00:10:08.889Z,96.9
2019-03-04T00:11:18.280Z,97.1
2019-03-04T00:12:27.668Z,96.3
2019-03-04T00:13:37.042Z,96.3
2019-03-04T00:14:46.504Z,96.2
2019-03-04T00:15:55.836Z,96.7
2019-03-04T00:17:05.194Z,96.3
2019-03-04T00:18:14.602Z,95.6
2019-03-04T00:19:23.973Z,95.1
2019-03-04T00:20:33.348Z,95.8
2019-03-04T00:21:42.734Z,95.7
2019-03-04T00:22:52.117Z,95.3
2019-03-04T00:24:01.529Z,96.2
2019-03-04T00:25:10.895Z,94.1
2019-03-04T00:26:20.347Z,94.5
2019-03-04T00:27:29.669Z,94.6
2019-03-04T00:28:39.077Z,95.1
2019-03-04T00:29:48.433Z,95.5
2019-03-04T00:30:57.820Z,95.3
2019-03-04T00:32:07.271Z,94.6
2019-03-04T00:33:16.608Z,96.6
2019-03-04T00:34:26.057Z,96.1
2019-03-04T00:35:35.361Z,96
2019-03-04T00:36:44.772Z,95.8
2019-03-04T00:37:54.140Z,95.3
2019-03-04T00:39:03.544Z,95.3
2019-03-04T00:40:12.907Z,95.8
2019-03-04T00:41:22.287Z,95.6
2019-03-04T00:42:31.671Z,96.4
2019-03-04T00:43:41.061Z,96.1
2019-03-04T00:44:50.485Z,96.2
2019-03-04T00:45:59.851Z,96.2
2019-03-04T00:47:09.215Z,96.2
2019-03-04T00:48:18.630Z,96.3
2019-03-04T00:49:27.974Z,96.1
2019-03-04T00:50:37.367Z,96.5
2019-03-04T00:51:46.749Z,96.2
2019-03-04T00:52:56.233Z,96.2
2019-03-04T00:54:05.504Z,96.1
2019-03-04T00:55:14.896Z,96
2019-03-04T00:56:24.277Z,95.6
2019-03-04T00:57:33.652Z,95.5
2019-03-04T00:58:43.060Z,96.1
2019-03-04T00:59:52.415Z,96.1
2019-03-04T01:01:01.894Z,95.4
2019-03-04T01:02:11.185Z,95.1
2019-03-04T01:03:20.619Z,95.4
2019-03-04T01:04:29.943Z,95.6
2019-03-04T01:05:39.327Z,95.6
2019-03-04T01:06:48.852Z,94.9
2019-03-04T01:07:58.117Z,95.1
2019-03-04T01:09:07.471Z,95.7
2019-03-04T01:10:16.856Z,96.1
2019-03-04T01:11:26.251Z,95
2019-03-04T01:12:35.612Z,94.9
2019-03-04T01:13:44.997Z,95.2
2019-03-04T01:14:54.500Z,95.1
2019-03-04T01:16:03.757Z,95.5
2019-03-04T01:17:13.154Z,95.4
2019-03-04T01:18:22.520Z,95
2019-03-04T01:19:31.916Z,94.5
2019-03-04T01:20:41.314Z,94.7
2019-03-04T01:21:50.667Z,94.8
2019-03-04T01:23:00.057Z,94.3
2019-03-04T01:24:09.539Z,94.7
2019-03-04T01:25:18.816Z,94.6
2019-03-04T01:26:28.230Z,95
2019-03-04T01:27:37.597Z,94.6
2019-03-04T01:28:46.955Z,94
2019-03-04T01:29:56.497Z,93.9
2019-03-04T01:31:05.715Z,93.7
2019-03-04T01:32:15.113Z,93.3
2019-03-04T01:33:24.484Z,93.7
2019-03-04T01:34:33.859Z,94
2019-03-04T01:35:43.250Z,94
2019-03-04T01:36:52.728Z,94
2019-03-04T01:38:01.993Z,94.5
2019-03-04T01:39:11.555Z,94.5
2019-03-04T01:40:20.831Z,93.9
2019-03-04T01:41:30.150Z,94
2019-03-04T01:42:39.544Z,94.2
2019-03-04T01:43:48.899Z,93.7
2019-03-04T01:44:58.288Z,94.2
2019-03-04T01:46:07.669Z,95.1
2019-03-04T01:47:17.057Z,94
2019-03-04T01:48:26.454Z,94.8
2019-03-04T01:49:35.830Z,94.8
2019-03-04T01:50:45.189Z,94.6
2019-03-04T01:51:54.579Z,95.8
2019-03-04T01:53:03.930Z,95.1
2019-03-04T01:54:13.356Z,95.2
2019-03-04T01:55:22.683Z,95.4
2019-03-04T01:56:32.115Z,95
2019-03-04T01:57:41.612Z,95.6
2019-03-04T01:58:50.924Z,96
2019-03-04T02:00:00.369Z,96.1
2019-03-04T02:01:09.554Z,96
2019-03-04T02:02:18.971Z,95.5
2019-03-04T02:03:28.304Z,95.5
2019-03-04T02:04:37.676Z,96
2019-03-04T02:05:47.043Z,96
2019-03-04T02:06:56.412Z,95.7
2019-03-04T02:08:05.791Z,96.6
2019-03-04T02:09:15.165Z,96
2019-03-04T02:10:24.581Z,96
2019-03-04T02:11:33.901Z,96.2
2019-03-04T02:12:43.299Z,96.2
2019-03-04T02:13:52.635Z,97.2
2019-03-04T02:15:02.050Z,96.7
2019-03-04T02:16:11.441Z,96.4
2019-03-04T02:17:20.766Z,96
2019-03-04T02:18:30.147Z,96.6
2019-03-04T02:19:39.502Z,96.1
2019-03-04T02:20:48.873Z,96.5
2019-03-04T02:21:58.264Z,96.7
2019-03-04T02:23:07.599Z,97.2
2019-03-04T02:24:16.979Z,97.3
2019-03-04T02:25:26.455Z,97
2019-03-04T02:26:35.720Z,97.4
2019-03-04T02:27:45.092Z,96.8
2019-03-04T02:28:54.489Z,97.9
2019-03-04T02:30:03.822Z,97.1
2019-03-04T02:31:13.220Z,97
2019-03-04T02:32:22.641Z,96.8
2019-03-04T02:33:32.030Z,97.1
2019-03-04T02:34:41.276Z,97.6
2019-03-04T02:35:50.755Z,97.2
2019-03-04T02:37:00.290Z,97.4
2019-03-04T02:38:09.389Z,97.5
2019-03-04T02:39:18.753Z,97.3
2019-03-04T02:40:28.128Z,97.3
2019-03-04T02:41:37.475Z,97.7
2019-03-04T02:42:46.866Z,97.3
2019-03-04T02:43:56.216Z,96.8
2019-03-04T02:45:05.589Z,97.1
2019-03-04T02:46:15.037Z,97.1
2019-03-04T02:47:24.388Z,96.5
2019-03-04T02:48:33.669Z,96.8
2019-03-04T02:49:43.072Z,96.8
2019-03-04T02:50:52.390Z,97
2019-03-04T02:52:01.747Z,96.9
2019-03-04T02:53:11.150Z,97
2019-03-04T02:54:20.496Z,97.3
2019-03-04T02:55:29.835Z,96.5
2019-03-04T02:56:39.246Z,96.8
2019-03-04T02:57:48.557Z,96.6
2019-03-04T02:58:57.969Z,96.2
2019-03-04T03:00:07.296Z,96.5
2019-03-04T03:01:16.656Z,96
2019-03-04T03:02:26.018Z,96
2019-03-04T03:03:35.369Z,96
2019-03-04T03:04:44.762Z,96
2019-03-04T03:05:54.099Z,97
2019-03-04T03:07:03.785Z,96.1
2019-03-04T03:08:12.837Z,96.9
2019-03-04T03:09:22.207Z,95.9
2019-03-04T03:10:31.598Z,96.2
2019-03-04T03:11:40.950Z,96
2019-03-04T03:12:50.282Z,95.9
2019-03-04T03:13:59.709Z,96.4
2019-03-04T03:15:09.001Z,96
2019-03-04T03:16:18.420Z,95.9
2019-03-04T03:17:27.738Z,96
2019-03-04T03:18:37.126Z,95.7
2019-03-04T03:19:46.604Z,96
2019-03-04T03:20:55.846Z,96
2019-03-04T03:22:05.188Z,96.2
2019-03-04T03:23:14.562Z,96
2019-03-04T03:24:23.922Z,96
2019-03-04T03:25:33.281Z,96.7
2019-03-04T03:26:42.647Z,96.7
2019-03-04T03:27:52.009Z,96.4
2019-03-04T03:29:01.465Z,96.3
2019-03-04T03:30:10.749Z,96.4
2019-03-04T03:31:20.127Z,96.3
2019-03-04T03:32:29.478Z,96
2019-03-04T03:33:38.928Z,96.5
2019-03-04T03:34:48.498Z,97.1
2019-03-04T03:35:57.564Z,97.2
2019-03-04T03:37:06.927Z,96.9
2019-03-04T03:38:16.398Z,97.5
2019-03-04T03:39:25.688Z,97
2019-03-04T03:40:35.006Z,96.5
2019-03-04T03:41:44.417Z,96.6
2019-03-04T03:42:53.742Z,96.1
2019-03-04T03:44:03.168Z,97.3
2019-03-04T03:45:12.470Z,97.8
2019-03-04T03:46:21.852Z,96.3
2019-03-04T03:47:31.241Z,96.4
2019-03-04T03:48:40.547Z,96.9
2019-03-04T03:49:49.904Z,96.5
2019-03-04T03:50:59.298Z,97
2019-03-04T03:52:08.645Z,96.8
2019-03-04T03:53:17.996Z,96.9
2019-03-04T03:54:27.374Z,96.7
2019-03-04T03:55:36.725Z,96.7
2019-03-04T03:56:46.085Z,96.9
2019-03-04T03:57:55.455Z,97.1
2019-03-04T03:59:04.886Z,98
2019-03-04T04:00:14.235Z,97.1
2019-03-04T04:01:23.554Z,96.8
2019-03-04T04:02:32.946Z,97.2
2019-03-04T04:03:42.311Z,97.1
2019-03-04T04:04:51.644Z,97.4
2019-03-04T04:06:01.029Z,96.8
2019-03-04T04:07:10.369Z,97.2
2019-03-04T04:08:19.746Z,97.5
2019-03-04T04:09:29.110Z,97.7
2019-03-04T04:10:38.487Z,97.4
2019-03-04T04:11:47.822Z,97.5
2019-03-04T04:12:57.209Z,97.1
2019-03-04T04:14:06.539Z,97.5
2019-03-04T04:15:15.908Z,97.1
2019-03-04T04:16:25.270Z,97.6
2019-03-04T04:17:34.625Z,97.4
2019-03-04T04:18:44.014Z,97.1
2019-03-04T04:19:53.355Z,97.1
2019-03-04T04:21:02.720Z,97.7
2019-03-04T04:22:12.107Z,97
2019-03-04T04:23:21.502Z,97.3
2019-03-04T04:24:30.864Z,97.5
2019-03-04T04:25:40.279Z,96.8
2019-03-04T04:26:49.578Z,96.7
2019-03-04T04:27:58.913Z,97.7
2019-03-04T04:29:08.270Z,97.6
2019-03-04T04:30:17.652Z,97.6
2019-03-04T04:31:27.001Z,97.1
2019-03-04T04:32:36.373Z,97.4
2019-03-04T04:33:45.737Z,97.5
2019-03-04T04:34:55.105Z,97.8
2019-03-04T04:36:04.500Z,97.7
2019-03-04T04:37:13.846Z,97.5
2019-03-04T04:38:23.267Z,97.5
2019-03-04T04:39:32.591Z,97.5
2019-03-04T04:40:41.931Z,97.3
2019-03-04T04:41:51.298Z,97.5
2019-03-04T04:43:00.661Z,98
2019-03-04T04:44:10.019Z,97.4
2019-03-04T04:45:19.452Z,97.5
2019-03-04T04:46:28.746Z,97.8
2019-03-04T04:47:38.119Z,97.8
2019-03-04T04:48:47.547Z,98
2019-03-04T04:49:56.927Z,98
2019-03-04T04:51:06.212Z,97.8
2019-03-04T04:52:15.576Z,98
2019-03-04T04:53:24.947Z,98
2019-03-04T04:54:34.312Z,97.9
2019-03-04T04:55:43.728Z,97.9
2019-03-04T04:56:53.041Z,98.1
2019-03-04T04:58:02.525Z,98.2
2019-03-04T04:59:11.760Z,98.5
2019-03-04T05:00:21.127Z,98.6
2019-03-04T05:01:30.492Z,98.4
2019-03-04T05:02:39.852Z,98
2019-03-04T05:03:49.222Z,98.1
2019-03-04T05:04:58.590Z,98
2019-03-04T05:06:07.979Z,98.4
2019-03-04T05:07:17.397Z,98.7
2019-03-04T05:08:26.677Z,98.4
2019-03-04T05:09:36.060Z,98.5
2019-03-04T05:10:45.419Z,99
2019-03-04T05:11:54.768Z,98.5
2019-03-04T05:13:04.195Z,98.2
2019-03-04T05:14:13.516Z,98.7
2019-03-04T05:15:22.888Z,98.5
2019-03-04T05:16:32.490Z,98.8
2019-03-04T05:17:41.591Z,99.2
2019-03-04T05:18:50.961Z,99.9
2019-03-04T05:20:00.467Z,99.9
2019-03-04T05:21:09.688Z,99.9
2019-03-04T05:22:19.063Z,99.9
2019-03-04T05:23:28.421Z,99.9
2019-03-04T05:24:37.768Z,99.9
2019-03-04T05:25:47.138Z,99.9
2019-03-04T05:26:56.513Z,99.9
2019-03-04T05:28:05.859Z,99.9
2019-03-04T05:29:15.219Z,99.9
2019-03-04T05:30:24.572Z,99.9
2019-03-04T05:31:33.945Z,99.9
2019-03-04T05:32:43.330Z,99.9
2019-03-04T05:33:52.646Z,99.9
2019-03-04T05:35:02.036Z,99.9
2019-03-04T05:36:11.369Z,99.9
2019-03-04T05:47:45.843Z,99.9
2019-03-04T05:48:54.337Z,99.9
2019-03-04T05:50:03.727Z,99.9
2019-03-04T05:51:13.042Z,99.9
2019-03-04T05:52:22.439Z,99.9
2019-03-04T05:53:31.770Z,99.9
2019-03-04T05:54:41.140Z,99.9
2019-03-04T05:55:50.484Z,99.9
2019-03-04T05:56:59.842Z,99.9
2019-03-04T05:58:09.217Z,99.9
2019-03-04T05:59:20.288Z,99.9
2019-03-04T06:00:27.913Z,99.9
2019-03-04T06:01:37.277Z,99.9
2019-03-04T06:02:46.659Z,99.9
2019-03-04T06:03:56.008Z,99.9
2019-03-04T06:05:05.369Z,99.9
2019-03-04T06:06:14.730Z,99.9
2019-03-04T06:07:24.137Z,99.9
2019-03-04T06:08:33.459Z,99.9
2019-03-04T06:09:42.818Z,99.9
2019-03-04T06:10:52.233Z,99.9
2019-03-04T06:12:01.539Z,99.9
2019-03-04T06:13:10.906Z,99.9
2019-03-04T06:14:20.282Z,99.9
2019-03-04T06:15:29.634Z,99.9
2019-03-04T06:16:47.668Z,99.9
2019-03-04T06:17:48.367Z,99.9
2019-03-04T06:18:57.742Z,99.9
2019-03-04T06:20:07.096Z,99.9
2019-03-04T06:21:16.517Z,99.9
2019-03-04T06:22:25.836Z,99.9
2019-03-04T06:23:35.194Z,99.9
2019-03-04T06:24:44.566Z,99.9
2019-03-04T06:25:53.913Z,99.9
2019-03-04T06:27:03.367Z,99.9
2019-03-04T06:28:12.683Z,99.9
2019-03-04T06:29:22.018Z,99.9
2019-03-04T06:30:31.500Z,99.9
2019-03-04T06:31:40.781Z,99.9
2019-03-04T06:32:50.116Z,99.9
2019-03-04T06:33:59.477Z,99.9
2019-03-04T06:35:08.874Z,99.9
2019-03-04T06:36:18.206Z,99.9
2019-03-04T06:37:27.571Z,99.9
2019-03-04T06:38:37.006Z,99.9
2019-03-04T06:39:46.400Z,99.9
2019-03-04T06:40:55.676Z,99.9
2019-03-04T06:42:05.064Z,99.9
2019-03-04T06:43:14.480Z,99.9
2019-03-04T06:44:23.785Z,99.9
2019-03-04T06:45:33.209Z,99.9
2019-03-04T06:46:42.565Z,99.9
2019-03-04T06:47:51.931Z,99.9
2019-03-04T06:49:01.305Z,99.9
2019-03-04T06:50:10.632Z,99.9
2019-03-04T06:51:20.002Z,99.9
2019-03-04T06:52:29.407Z,99.9
2019-03-04T06:53:38.739Z,99.9
2019-03-04T06:54:48.111Z,99.9
2019-03-04T06:55:57.539Z,99.9
2019-03-04T06:57:06.846Z,99.9
2019-03-04T06:58:16.314Z,99.9
2019-03-04T06:59:25.628Z,99.9
2019-03-04T07:00:34.969Z,99.9
2019-03-04T07:01:44.364Z,99.9
2019-03-04T07:02:53.712Z,99.9
2019-03-04T07:04:03.209Z,99.9
2019-03-04T07:05:12.455Z,99.9
2019-03-04T07:06:21.836Z,99.9
2019-03-04T07:07:31.301Z,99.9
2019-03-04T07:08:40.595Z,99.9
2019-03-04T07:09:49.960Z,99.9
2019-03-04T07:10:59.321Z,99.9
2019-03-04T07:12:08.749Z,99.9
2019-03-04T07:13:18.064Z,99.9
2019-03-04T07:14:27.441Z,99.9
2019-03-04T07:15:36.879Z,99.9
2019-03-04T07:16:46.325Z,99.9
2019-03-04T07:17:55.573Z,99.9
2019-03-04T07:19:04.931Z,99.9
2019-03-04T07:20:14.321Z,99.9
2019-03-04T07:21:23.697Z,99.6
2019-03-04T07:22:33.092Z,99.5
2019-03-04T07:23:42.443Z,99.1
2019-03-04T07:24:51.832Z,99.4
2019-03-04T07:26:01.274Z,98.7
2019-03-04T07:27:10.597Z,98.8
2019-03-04T07:28:19.961Z,98.4
2019-03-04T07:29:29.356Z,98.6
2019-03-04T07:30:38.722Z,98.3
2019-03-04T07:31:48.103Z,98.2
2019-03-04T07:32:57.474Z,97.5
2019-03-04T07:34:07.062Z,96.8
2019-03-04T07:35:16.310Z,96.5
2019-03-04T07:36:25.633Z,96.5
2019-03-04T07:37:34.989Z,95.9
2019-03-04T07:38:44.394Z,95.8
2019-03-04T07:39:53.774Z,96.2
2019-03-04T07:41:03.155Z,94.3
2019-03-04T07:42:12.540Z,94.7
2019-03-04T07:43:21.938Z,95
2019-03-04T07:44:31.415Z,94.3
2019-03-04T07:45:40.703Z,93.3
2019-03-04T07:46:50.093Z,93.9
2019-03-04T07:48:00.388Z,94
2019-03-04T07:49:08.873Z,92.2
2019-03-04T07:50:18.253Z,92.6
2019-03-04T07:51:27.646Z,92.6
2019-03-04T07:52:37.599Z,91.9
2019-03-04T07:53:47.044Z,91.9
2019-03-04T07:54:55.860Z,91.9
2019-03-04T07:56:05.240Z,91.9
2019-03-04T07:57:14.580Z,92.1
2019-03-04T07:58:25.967Z,91.5
2019-03-04T07:59:33.360Z,91.2
2019-03-04T08:00:42.761Z,91.1
2019-03-04T08:01:52.145Z,90.9
2019-03-04T08:03:01.558Z,91.1
2019-03-04T08:04:10.947Z,91.6
2019-03-04T08:05:20.395Z,90.9
2019-03-04T08:06:29.773Z,91.4
2019-03-04T08:07:39.129Z,90.3
2019-03-04T08:08:48.557Z,89.4
2019-03-04T08:09:57.904Z,90.5
2019-03-04T08:11:07.290Z,90.7
2019-03-04T08:12:16.702Z,90
2019-03-04T08:13:26.108Z,90.1
2019-03-04T08:14:35.477Z,89.4
2019-03-04T08:15:44.880Z,88.9
2019-03-04T08:16:54.262Z,89.5
2019-03-04T08:18:03.690Z,89.5
2019-03-04T08:19:13.089Z,89.5
2019-03-04T08:20:22.500Z,89.5
2019-03-04T08:21:31.870Z,89.5
2019-03-04T08:22:41.270Z,89.5
2019-03-04T08:23:50.710Z,89.5
2019-03-04T08:25:00.146Z,87.7
2019-03-04T08:26:09.498Z,89.5
2019-03-04T08:27:18.887Z,86.2
2019-03-04T08:28:28.279Z,87
2019-03-04T08:29:37.697Z,87.1
2019-03-04T08:30:47.118Z,88.5
2019-03-04T08:31:56.494Z,87.8
2019-03-04T08:33:05.896Z,87.9
2019-03-04T08:34:15.343Z,86.8
2019-03-04T08:35:24.725Z,84.7
2019-03-04T08:36:34.129Z,84.7
2019-03-04T08:37:43.566Z,84.8
2019-03-04T08:38:52.988Z,84.9
2019-03-04T08:40:02.556Z,84.3
2019-03-04T08:41:11.818Z,84.9
2019-03-04T08:42:21.370Z,83.3
2019-03-04T08:43:30.709Z,84.8
2019-03-04T08:44:40.128Z,84.7
2019-03-04T08:45:49.567Z,82.4
2019-03-04T08:46:58.968Z,84.9
2019-03-04T08:48:08.398Z,84.9
2019-03-04T08:49:17.805Z,84.5
2019-03-04T08:50:27.243Z,84.5
2019-03-04T08:51:36.807Z,84.9
2019-03-04T08:52:46.115Z,84.8
2019-03-04T08:53:55.520Z,84.9
2019-03-04T08:55:05.011Z,84.6
2019-03-04T08:56:14.422Z,84.3
2019-03-04T08:57:23.805Z,82.8
2019-03-04T08:58:34.563Z,83.6
2019-03-04T08:59:42.685Z,80
2019-03-04T09:00:52.145Z,81.7
2019-03-04T09:02:01.514Z,82.4
2019-03-04T09:03:10.953Z,81.3
2019-03-04T09:04:20.371Z,81.2
2019-03-04T09:05:29.809Z,81.2
2019-03-04T09:06:39.351Z,79.9
2019-03-04T09:07:48.665Z,81
2019-03-04T09:08:58.076Z,80.7
2019-03-04T09:10:07.553Z,79.9
2019-03-04T09:11:16.942Z,77.9
2019-03-04T09:12:26.368Z,77.3
2019-03-04T09:13:35.782Z,76.8
2019-03-04T09:14:45.210Z,77.9
2019-03-04T09:15:54.635Z,76.7
2019-03-04T09:17:04.055Z,77.7
2019-03-04T09:18:13.480Z,74.9
2019-03-04T09:19:22.974Z,75
2019-03-04T09:20:32.423Z,75.2
2019-03-04T09:21:41.848Z,73.5
2019-03-04T09:22:51.198Z,73.7
2019-03-04T09:24:00.665Z,73.9
2019-03-04T09:25:10.057Z,72.6
2019-03-04T09:26:19.515Z,69.8
2019-03-04T09:27:28.935Z,69.8
2019-03-04T09:28:38.506Z,69.8
2019-03-04T09:29:47.774Z,68.9
2019-03-04T09:30:57.205Z,68.8
2019-03-04T09:32:06.712Z,67.9
2019-03-04T09:33:16.085Z,67
2019-03-04T09:34:25.533Z,68.8
2019-03-04T09:35:34.959Z,66.3
2019-03-04T09:36:44.715Z,66.3
2019-03-04T09:37:53.840Z,65.7
2019-03-04T09:39:03.354Z,66.9
2019-03-04T09:40:12.742Z,67.8
2019-03-04T09:41:22.129Z,65.9
2019-03-04T09:42:31.648Z,65
2019-03-04T09:43:40.994Z,65.3
2019-03-04T09:44:50.483Z,65.4
2019-03-04T09:45:59.874Z,65.2
2019-03-04T09:47:09.424Z,65.6
2019-03-04T09:48:18.808Z,64.7
2019-03-04T09:50:37.620Z,64.7
2019-03-04T09:51:47.135Z,64.7
2019-03-04T09:52:56.525Z,64.1
2019-03-04T09:54:05.976Z,63.5
2019-03-04T09:55:15.368Z,63.5
2019-03-04T09:56:24.819Z,63.1
2019-03-04T09:57:34.271Z,64.2
2019-03-04T09:58:43.756Z,63.5
2019-03-04T09:59:53.185Z,63.2
2019-03-04T10:01:02.719Z,63.7
2019-03-04T10:02:12.017Z,62.4
2019-03-04T10:03:21.469Z,61.1
2019-03-04T10:04:30.907Z,62.1
2019-03-04T10:05:40.361Z,61.6
2019-03-04T10:06:49.980Z,60.4
2019-03-04T10:07:59.239Z,60.2
2019-03-04T10:09:08.687Z,59.5
2019-03-04T10:10:18.174Z,59.7
2019-03-04T10:11:27.603Z,59.4
2019-03-04T10:12:37.060Z,59.9
2019-03-04T10:13:46.508Z,59.4
2019-03-04T10:14:55.945Z,59.5
2019-03-04T10:16:05.391Z,58.2
2019-03-04T10:17:14.839Z,57.6
2019-03-04T10:18:24.305Z,57.5
2019-03-04T10:19:33.756Z,55.2
2019-03-04T10:20:43.216Z,56.1
2019-03-04T10:21:52.670Z,55.7
2019-03-04T10:23:02.123Z,53.7
2019-03-04T10:24:11.614Z,53.6
2019-03-04T10:25:21.045Z,51.3
2019-03-04T10:26:30.505Z,52.4
2019-03-04T10:27:39.979Z,51.7
2019-03-04T10:28:49.442Z,49.4
2019-03-04T10:29:58.892Z,45.8
2019-03-04T10:31:08.524Z,44.2
2019-03-04T10:32:17.924Z,43.4
2019-03-04T10:33:27.427Z,39.9
2019-03-04T10:34:36.835Z,37.8
2019-03-04T10:35:46.456Z,37
2019-03-04T10:38:05.346Z,37.8
2019-03-04T10:39:14.841Z,37
2019-03-04T10:40:24.374Z,36.7
2019-03-04T10:41:33.849Z,37
2019-03-04T10:42:43.361Z,34.7
2019-03-04T10:43:52.864Z,34.3
2019-03-04T10:45:02.393Z,34.6
2019-03-04T10:46:11.960Z,34.3
2019-03-04T10:47:21.388Z,33.5
2019-03-04T10:48:30.871Z,34.5
2019-03-04T10:49:40.423Z,31.3
2019-03-04T10:50:49.896Z,30
2019-03-04T10:51:59.377Z,29.5
2019-03-04T10:53:08.962Z,29.5
2019-03-04T10:54:18.504Z,29.6
2019-03-04T10:55:27.898Z,29
2019-03-04T10:56:37.418Z,28.4
2019-03-04T10:57:46.916Z,27
2019-03-04T10:58:56.471Z,27.2
2019-03-04T11:00:05.952Z,26.9
2019-03-04T11:01:15.483Z,26.9
2019-03-04T11:02:24.948Z,26.9
2019-03-04T11:03:34.514Z,26.9
2019-03-04T11:04:44.035Z,26.9
2019-03-04T11:05:53.468Z,25.9
2019-03-04T11:07:02.982Z,25.8
2019-03-04T11:08:12.551Z,24.8
2019-03-04T11:09:22.003Z,23.1
2019-03-04T11:10:31.584Z,24
2019-03-04T11:11:41.047Z,23.3
2019-03-04T11:12:50.525Z,23
2019-03-04T11:14:00.029Z,23.2
2019-03-04T11:15:09.552Z,23
2019-03-04T11:16:19.059Z,22.1
2019-03-04T11:17:28.614Z,22.1
2019-03-04T11:18:38.120Z,22.4
2019-03-04T11:19:47.719Z,23.2
2019-03-04T11:20:57.152Z,32.5
2019-03-04T11:22:06.689Z,44.1
2019-03-04T11:23:16.297Z,62.2
2019-03-04T11:24:25.725Z,85.5
2019-03-04T11:25:35.187Z,96.2
2019-03-04T11:26:44.696Z,99.9
2019-03-04T11:27:54.295Z,99.9
2019-03-04T11:29:03.638Z,99.9
2019-03-04T11:30:13.102Z,99.9
2019-03-04T11:31:22.846Z,99.9
2019-03-04T11:32:32.244Z,99.9
2019-03-04T11:33:41.530Z,99.9
2019-03-04T11:34:50.891Z,99.9
2019-03-04T11:36:00.302Z,99.9
2019-03-04T11:37:09.721Z,99.9
2019-03-04T11:38:19.130Z,99.9
2019-03-04T11:39:28.572Z,99.9
2019-03-04T11:40:37.993Z,99.9
2019-03-04T11:41:47.461Z,99.9
2019-03-04T11:42:56.764Z,99.9
2019-03-04T11:44:06.170Z,99.9
2019-03-04T11:45:15.579Z,99.9
2019-03-04T11:46:25.001Z,99.9
2019-03-04T11:47:34.349Z,99.9
2019-03-04T11:48:43.802Z,99.9
2019-03-04T11:49:53.615Z,99.9
2019-03-04T11:51:02.620Z,99.9
2019-03-04T11:52:11.943Z,99.9
2019-03-04T11:53:21.285Z,99.9
2019-03-04T11:54:30.695Z,99.9
2019-03-04T11:55:40.046Z,99.9
2019-03-04T11:56:49.431Z,99.9
2019-03-04T11:57:58.792Z,99.9
2019-03-04T11:59:08.143Z,99.9
2019-03-04T12:00:17.592Z,99.9
2019-03-04T12:01:26.878Z,99.9
2019-03-04T12:02:39.383Z,99.9
2019-03-04T12:03:45.650Z,99.9
2019-03-04T12:04:54.977Z,99.9
2019-03-04T12:06:04.375Z,99.9
2019-03-04T12:07:13.718Z,99.9
2019-03-04T12:08:23.069Z,99.9
2019-03-04T12:09:32.456Z,98.2
2019-03-04T12:10:41.850Z,96.2
2019-03-04T12:11:51.203Z,97.4
2019-03-04T12:13:00.567Z,97.3
2019-03-04T12:14:09.885Z,96.5
2019-03-04T12:15:19.233Z,97.4
2019-03-04T12:16:28.601Z,98.2
2019-03-04T12:17:38.032Z,97.2
2019-03-04T12:18:47.399Z,93.1
2019-03-04T12:19:56.720Z,86.9
2019-03-04T12:21:06.088Z,88.4
2019-03-04T12:22:15.571Z,84.6
2019-03-04T12:23:24.858Z,81
2019-03-04T12:24:34.271Z,79.2
2019-03-04T12:25:43.634Z,74.1
2019-03-04T12:26:53.043Z,72.4
2019-03-04T12:28:02.540Z,65.2
2019-03-04T12:29:11.893Z,66.9
2019-03-04T12:30:21.265Z,69.2
2019-03-04T12:31:30.699Z,68.5
2019-03-04T12:32:40.074Z,73.8
2019-03-04T12:33:49.486Z,71.5
2019-03-04T12:34:58.920Z,67
2019-03-04T12:36:08.292Z,71.2
2019-03-04T12:37:17.737Z,73.8
2019-03-04T12:38:27.125Z,75.2
2019-03-04T12:39:36.535Z,75
2019-03-04T12:40:45.945Z,73.7
2019-03-04T12:41:55.381Z,73.6
2019-03-04T12:43:04.774Z,68.6
2019-03-04T12:44:14.214Z,66.3
2019-03-04T12:45:34.754Z,72.1
2019-03-04T12:46:33.086Z,68.8
2019-03-04T12:47:42.470Z,67.2
2019-03-04T12:48:52.304Z,69
2019-03-04T12:50:01.400Z,65
2019-03-04T12:51:10.889Z,66
2019-03-04T12:52:20.452Z,67.1
2019-03-04T12:53:37.661Z,67.6
2019-03-04T12:54:39.050Z,64.3
2019-03-04T12:55:48.680Z,64.2
2019-03-04T12:56:57.938Z,64.2
2019-03-04T12:58:07.433Z,63.4
2019-03-04T12:59:16.824Z,63
2019-03-04T13:00:26.302Z,63.8
2019-03-04T13:01:35.719Z,62.3
2019-03-04T13:02:45.167Z,58.3
2019-03-04T13:03:54.657Z,57.4
2019-03-04T13:05:04.082Z,58.4
2019-03-04T13:06:13.544Z,58.5
2019-03-04T13:07:22.990Z,58.3
2019-03-04T13:08:32.583Z,61.5
2019-03-04T13:09:41.937Z,55.7
2019-03-04T13:10:51.364Z,56
2019-03-04T13:12:00.888Z,58.7
2019-03-04T13:13:10.279Z,54
2019-03-04T13:14:19.759Z,52.8
2019-03-04T13:15:29.348Z,54.7
2019-03-04T13:16:38.697Z,49.1
2019-03-04T13:17:48.381Z,51.1
2019-03-04T13:18:57.725Z,47.4
2019-03-04T13:20:07.058Z,45.7
2019-03-04T13:21:16.529Z,46.2
2019-03-04T13:22:25.986Z,45.4
2019-03-04T13:23:35.453Z,39.3
2019-03-04T13:24:44.929Z,36.5
2019-03-04T13:25:54.410Z,36.8
2019-03-04T13:27:03.900Z,35.9
2019-03-04T13:28:13.721Z,33
2019-03-04T13:29:22.985Z,30.6
2019-03-04T13:30:32.428Z,30.7
2019-03-04T13:31:41.899Z,29.4
2019-03-04T13:32:51.438Z,28.1
2019-03-04T13:34:00.944Z,27.7
2019-03-04T13:35:10.511Z,26.9
2019-03-04T13:36:19.952Z,26.2
2019-03-04T13:37:29.489Z,26.9
2019-03-04T13:38:38.981Z,26.1
2019-03-04T13:39:48.570Z,25.9
2019-03-04T13:40:58.039Z,24.6
2019-03-04T13:42:07.523Z,26.3
2019-03-04T13:43:17.037Z,25.9
2019-03-04T13:44:26.599Z,25.4
2019-03-04T13:45:36.071Z,25.9
2019-03-04T13:46:45.588Z,25.9
2019-03-04T13:47:55.071Z,25.9
2019-03-04T13:49:04.592Z,24.6
2019-03-04T13:50:14.106Z,25.2
2019-03-04T13:51:23.600Z,24
2019-03-04T13:52:33.190Z,23.8
2019-03-04T13:53:42.763Z,23.1
2019-03-04T13:54:52.258Z,22.8
2019-03-04T13:56:01.674Z,22.9
2019-03-04T13:57:11.187Z,22.2
2019-03-04T13:58:20.778Z,22.4
2019-03-04T13:59:30.239Z,21.3
2019-03-04T14:00:39.763Z,21.4
2019-03-04T14:01:49.457Z,21.4
2019-03-04T14:02:58.867Z,21.8
2019-03-04T14:04:08.368Z,20.8
2019-03-04T14:05:18.066Z,20.6
2019-03-04T14:06:27.447Z,21
2019-03-04T14:07:36.986Z,21.4
2019-03-04T14:08:46.538Z,20.7
2019-03-04T14:09:56.077Z,20.2
2019-03-04T14:11:05.664Z,19.4
2019-03-04T14:12:15.148Z,20.1
2019-03-04T14:13:24.727Z,18.7
2019-03-04T14:14:34.256Z,19.8
2019-03-04T14:15:43.895Z,20.1
2019-03-04T14:16:53.301Z,20.1
2019-03-04T14:18:02.835Z,19.9
2019-03-04T14:19:12.398Z,20
2019-03-04T14:20:21.935Z,19.3
2019-03-04T14:21:31.506Z,19.5
2019-03-04T14:22:40.958Z,18.4
2019-03-04T14:23:50.475Z,18.3
2019-03-04T14:25:00.054Z,18.3
2019-03-04T14:26:09.536Z,18.2
2019-03-04T14:27:19.013Z,17.6
2019-03-04T14:28:28.548Z,17.5
2019-03-04T14:29:38.036Z,18.1
2019-03-04T14:30:47.639Z,17.8
2019-03-04T14:31:57.107Z,18.4
2019-03-04T14:33:06.562Z,17.3
2019-03-04T14:34:16.074Z,17.6
2019-03-04T14:35:25.556Z,17
2019-03-04T14:36:35.182Z,17
2019-03-04T14:37:44.546Z,17.6
2019-03-04T14:38:54.268Z,17.2
2019-03-04T14:40:03.566Z,17.2
2019-03-04T14:41:13.056Z,17.4
2019-03-04T14:42:22.555Z,17.7
2019-03-04T14:43:32.017Z,17.7
2019-03-04T14:44:41.715Z,17.8
2019-03-04T14:45:50.998Z,18
2019-03-04T14:47:00.513Z,18.4
2019-03-04T14:48:09.985Z,17.6
2019-03-04T14:49:19.480Z,17.9
2019-03-04T14:50:29.018Z,17.8
2019-03-04T14:51:38.498Z,16.9
2019-03-04T14:52:48.018Z,17.3
2019-03-04T14:53:57.522Z,16.6
2019-03-04T14:55:07.033Z,16.5
2019-03-04T14:56:22.778Z,16.6
2019-03-04T14:57:26.128Z,17.3
2019-03-04T14:58:35.603Z,16.4
2019-03-04T14:59:45.107Z,17.5
2019-03-04T15:00:54.701Z,18.3
2019-03-04T15:02:04.115Z,18.4
2019-03-04T15:03:23.698Z,19
2019-03-04T15:04:23.067Z,19.5
2019-03-04T15:05:32.785Z,19.5
2019-03-04T15:07:51.539Z,20.2
2019-03-04T15:09:01.019Z,20.3
2019-03-04T15:10:12.035Z,19.8
2019-03-04T15:11:19.975Z,19
2019-03-04T15:12:29.475Z,19.8
2019-03-04T15:13:38.988Z,18.4
2019-03-04T15:14:48.432Z,17.9
2019-03-04T15:16:04.416Z,17.6
2019-03-04T15:17:07.424Z,17.1
2019-03-04T15:18:16.889Z,17.3
2019-03-04T15:19:26.385Z,16.5
2019-03-04T15:20:35.882Z,16.5
2019-03-04T15:21:45.387Z,17
2019-03-04T15:22:54.854Z,16.8
2019-03-04T15:24:04.354Z,17.6
2019-03-04T15:25:13.835Z,17.3
2019-03-04T15:26:23.300Z,17.9
2019-03-04T15:27:32.884Z,18.1
2019-03-04T15:28:42.264Z,18.8
2019-03-04T15:29:51.738Z,19.3
2019-03-04T15:31:01.221Z,20
2019-03-04T15:32:10.697Z,20.1
2019-03-04T15:33:20.666Z,20.8
2019-03-04T15:34:29.695Z,20.9
2019-03-04T15:35:39.135Z,20.7
2019-03-04T15:36:48.691Z,21.3
2019-03-04T15:37:58.088Z,21.4
2019-03-04T15:39:07.608Z,21.2
2019-03-04T15:40:17.102Z,21.5
2019-03-04T15:41:26.505Z,21.1
2019-03-04T15:42:35.990Z,21
2019-03-04T15:43:45.449Z,21.8
2019-03-04T15:44:54.904Z,21.7